sensor_id;sensor_type;location;lat;lon;timestamp;temperature;humidity
21823;DHT22;11074;48.596;9.238;2022-10-16T00:01:23;16.00;99.90
21823;DHT22;11074;48.596;9.238;2022-10-16T00:03:51;16.10;99.90
21823;DHT22;11074;48.596;9.238;2022-10-16T00:06:19;16.10;99.90
21823;DHT22;11074;48.596;9.238;2022-10-16T00:08:47;16.00;99.90
21823;DHT22;11074;48.596;9.238;2022-10-16T00:11:17;16.00;99.90
21823;DHT22;11074;48.596;9.238;2022-10-16T00:13:46;16.00;99.90
21823;DHT22;11074;48.596;9.238;2022-10-16T00:16:13;16.10;99.90
21823;DHT22;11074;48.596;9.238;2022-10-16T00:18:40;16.00;99.90
21823;DHT22;11074;48.596;9.238;2022-10-16T00:21:12;16.00;99.90
21823;DHT22;11074;48.596;9.238;2022-10-16T00:23:41;16.00;99.90
21823;DHT22;11074;48.596;9.238;2022-10-16T00:26:09;15.90;99.90
21823;DHT22;11074;48.596;9.238;2022-10-16T00:28:37;15.90;99.90
21823;DHT22;11074;48.596;9.238;2022-10-16T00:31:08;15.90;99.90
21823;DHT22;11074;48.596;9.238;2022-10-16T00:33:37;15.90;99.90
21823;DHT22;11074;48.596;9.238;2022-10-16T00:36:05;15.90;99.90
21823;DHT22;11074;48.596;9.238;2022-10-16T00:38:32;15.90;99.90
21823;DHT22;11074;48.596;9.238;2022-10-16T00:40:58;15.90;99.90
21823;DHT22;11074;48.596;9.238;2022-10-16T00:43:38;15.90;99.90
21823;DHT22;11074;48.596;9.238;2022-10-16T00:46:10;15.90;99.90
21823;DHT22;11074;48.596;9.238;2022-10-16T00:48:45;15.80;99.90
21823;DHT22;11074;48.596;9.238;2022-10-16T00:51:15;15.80;99.90
21823;DHT22;11074;48.596;9.238;2022-10-16T00:53:44;15.80;99.90
21823;DHT22;11074;48.596;9.238;2022-10-16T00:56:11;15.80;99.90
21823;DHT22;11074;48.596;9.238;2022-10-16T00:58:37;15.80;99.90
21823;DHT22;11074;48.596;9.238;2022-10-16T01:01:02;15.80;99.90
21823;DHT22;11074;48.596;9.238;2022-10-16T01:03:34;15.80;99.90
21823;DHT22;11074;48.596;9.238;2022-10-16T01:06:28;15.70;99.90
21823;DHT22;11074;48.596;9.238;2022-10-16T01:09:26;15.80;99.90
21823;DHT22;11074;48.596;9.238;2022-10-16T01:12:39;15.70;99.90
21823;DHT22;11074;48.596;9.238;2022-10-16T01:15:37;15.70;99.90
21823;DHT22;11074;48.596;9.238;2022-10-16T01:18:11;15.70;99.90
21823;DHT22;11074;48.596;9.238;2022-10-16T01:21:04;15.70;99.90
21823;DHT22;11074;48.596;9.238;2022-10-16T01:29:21;15.70;99.90
21823;DHT22;11074;48.596;9.238;2022-10-16T01:31:59;15.60;99.90
21823;DHT22;11074;48.596;9.238;2022-10-16T01:35:09;15.60;99.90
21823;DHT22;11074;48.596;9.238;2022-10-16T01:38:39;15.60;99.90
21823;DHT22;11074;48.596;9.238;2022-10-16T01:41:00;15.60;99.90
21823;DHT22;11074;48.596;9.238;2022-10-16T01:43:40;15.60;99.90
21823;DHT22;11074;48.596;9.238;2022-10-16T01:46:31;15.60;99.90
21823;DHT22;11074;48.596;9.238;2022-10-16T01:48:59;15.50;99.90
21823;DHT22;11074;48.596;9.238;2022-10-16T01:51:28;15.50;99.90
21823;DHT22;11074;48.596;9.238;2022-10-16T01:53:57;15.50;99.90
21823;DHT22;11074;48.596;9.238;2022-10-16T01:56:26;15.60;99.90
21823;DHT22;11074;48.596;9.238;2022-10-16T01:59:00;15.50;99.90
21823;DHT22;11074;48.596;9.238;2022-10-16T02:01:31;15.50;99.90
21823;DHT22;11074;48.596;9.238;2022-10-16T02:04:04;15.50;99.90
21823;DHT22;11074;48.596;9.238;2022-10-16T02:06:38;15.50;99.90
21823;DHT22;11074;48.596;9.238;2022-10-16T02:09:03;15.50;99.90
21823;DHT22;11074;48.596;9.238;2022-10-16T02:11:29;15.50;99.90
21823;DHT22;11074;48.596;9.238;2022-10-16T02:14:04;15.50;99.90
21823;DHT22;11074;48.596;9.238;2022-10-16T02:16:41;15.60;99.90
21823;DHT22;11074;48.596;9.238;2022-10-16T02:19:09;15.60;99.90
21823;DHT22;11074;48.596;9.238;2022-10-16T02:24:39;15.50;99.90
21823;DHT22;11074;48.596;9.238;2022-10-16T02:30:36;15.50;99.90
21823;DHT22;11074;48.596;9.238;2022-10-16T02:33:09;15.50;99.90
21823;DHT22;11074;48.596;9.238;2022-10-16T02:35:40;15.50;99.90
21823;DHT22;11074;48.596;9.238;2022-10-16T02:38:08;15.50;99.90
21823;DHT22;11074;48.596;9.238;2022-10-16T02:40:36;15.50;99.90
21823;DHT22;11074;48.596;9.238;2022-10-16T02:43:04;15.50;99.90
21823;DHT22;11074;48.596;9.238;2022-10-16T02:45:30;15.50;99.90
21823;DHT22;11074;48.596;9.238;2022-10-16T02:47:56;15.50;99.90
21823;DHT22;11074;48.596;9.238;2022-10-16T02:50:22;15.40;99.90
21823;DHT22;11074;48.596;9.238;2022-10-16T02:52:49;15.40;99.90
21823;DHT22;11074;48.596;9.238;2022-10-16T02:55:15;15.40;99.90
21823;DHT22;11074;48.596;9.238;2022-10-16T02:57:40;15.30;99.90
21823;DHT22;11074;48.596;9.238;2022-10-16T03:00:08;15.40;99.90
21823;DHT22;11074;48.596;9.238;2022-10-16T03:02:36;15.40;99.90
21823;DHT22;11074;48.596;9.238;2022-10-16T03:05:02;15.40;99.90
21823;DHT22;11074;48.596;9.238;2022-10-16T03:07:28;15.30;99.90
21823;DHT22;11074;48.596;9.238;2022-10-16T03:09:54;15.30;99.90
21823;DHT22;11074;48.596;9.238;2022-10-16T03:12:21;15.30;99.90
21823;DHT22;11074;48.596;9.238;2022-10-16T03:14:47;15.30;99.90
21823;DHT22;11074;48.596;9.238;2022-10-16T03:17:13;15.30;99.90
21823;DHT22;11074;48.596;9.238;2022-10-16T03:19:39;15.30;99.90
21823;DHT22;11074;48.596;9.238;2022-10-16T03:22:04;15.30;99.90
21823;DHT22;11074;48.596;9.238;2022-10-16T03:24:30;15.30;99.90
21823;DHT22;11074;48.596;9.238;2022-10-16T03:26:56;15.30;99.90
21823;DHT22;11074;48.596;9.238;2022-10-16T03:29:22;15.40;99.90
21823;DHT22;11074;48.596;9.238;2022-10-16T03:31:48;15.30;99.90
21823;DHT22;11074;48.596;9.238;2022-10-16T03:34:15;15.30;99.90
21823;DHT22;11074;48.596;9.238;2022-10-16T03:36:40;15.30;99.90
21823;DHT22;11074;48.596;9.238;2022-10-16T03:39:06;15.30;99.90
21823;DHT22;11074;48.596;9.238;2022-10-16T03:41:32;15.30;99.90
21823;DHT22;11074;48.596;9.238;2022-10-16T03:43:57;15.30;99.90
21823;DHT22;11074;48.596;9.238;2022-10-16T03:46:23;15.30;99.90
21823;DHT22;11074;48.596;9.238;2022-10-16T03:48:49;15.30;99.90
21823;DHT22;11074;48.596;9.238;2022-10-16T03:51:14;15.30;99.90
21823;DHT22;11074;48.596;9.238;2022-10-16T03:53:40;15.20;99.90
21823;DHT22;11074;48.596;9.238;2022-10-16T03:56:06;15.20;99.90
21823;DHT22;11074;48.596;9.238;2022-10-16T03:58:31;15.20;99.90
21823;DHT22;11074;48.596;9.238;2022-10-16T04:00:57;15.20;99.90
21823;DHT22;11074;48.596;9.238;2022-10-16T04:03:23;15.20;99.90
21823;DHT22;11074;48.596;9.238;2022-10-16T04:05:49;15.20;99.90
21823;DHT22;11074;48.596;9.238;2022-10-16T04:08:15;15.10;99.90
21823;DHT22;11074;48.596;9.238;2022-10-16T04:10:44;15.20;99.90
21823;DHT22;11074;48.596;9.238;2022-10-16T04:13:11;15.10;99.90
21823;DHT22;11074;48.596;9.238;2022-10-16T04:15:37;15.10;99.90
21823;DHT22;11074;48.596;9.238;2022-10-16T04:18:04;15.20;99.90
21823;DHT22;11074;48.596;9.238;2022-10-16T04:20:31;15.10;99.90
21823;DHT22;11074;48.596;9.238;2022-10-16T04:22:57;15.20;99.90
21823;DHT22;11074;48.596;9.238;2022-10-16T04:25:23;15.20;99.90
21823;DHT22;11074;48.596;9.238;2022-10-16T04:27:48;15.20;99.90
21823;DHT22;11074;48.596;9.238;2022-10-16T04:30:14;15.20;99.90
21823;DHT22;11074;48.596;9.238;2022-10-16T04:32:40;15.20;99.90
21823;DHT22;11074;48.596;9.238;2022-10-16T04:35:06;15.20;99.90
21823;DHT22;11074;48.596;9.238;2022-10-16T04:37:32;15.20;99.90
21823;DHT22;11074;48.596;9.238;2022-10-16T04:39:58;15.20;99.90
21823;DHT22;11074;48.596;9.238;2022-10-16T04:42:24;15.10;99.90
21823;DHT22;11074;48.596;9.238;2022-10-16T04:44:50;15.20;99.90
21823;DHT22;11074;48.596;9.238;2022-10-16T04:47:15;15.20;99.90
21823;DHT22;11074;48.596;9.238;2022-10-16T04:49:41;15.10;99.90
21823;DHT22;11074;48.596;9.238;2022-10-16T04:52:06;15.20;99.90
21823;DHT22;11074;48.596;9.238;2022-10-16T04:54:34;15.20;99.90
21823;DHT22;11074;48.596;9.238;2022-10-16T04:57:00;15.20;99.90
21823;DHT22;11074;48.596;9.238;2022-10-16T04:59:26;15.20;99.90
21823;DHT22;11074;48.596;9.238;2022-10-16T05:01:51;15.20;99.90
21823;DHT22;11074;48.596;9.238;2022-10-16T05:04:17;15.20;99.90
21823;DHT22;11074;48.596;9.238;2022-10-16T05:06:43;15.20;99.90
21823;DHT22;11074;48.596;9.238;2022-10-16T05:09:09;15.20;99.90
21823;DHT22;11074;48.596;9.238;2022-10-16T05:11:35;15.20;99.90
21823;DHT22;11074;48.596;9.238;2022-10-16T05:14:02;15.20;99.90
21823;DHT22;11074;48.596;9.238;2022-10-16T05:16:28;15.20;99.90
21823;DHT22;11074;48.596;9.238;2022-10-16T05:18:54;15.20;99.90
21823;DHT22;11074;48.596;9.238;2022-10-16T05:21:20;15.20;99.90
21823;DHT22;11074;48.596;9.238;2022-10-16T05:23:46;15.20;99.90
21823;DHT22;11074;48.596;9.238;2022-10-16T05:26:12;15.20;99.90
21823;DHT22;11074;48.596;9.238;2022-10-16T05:28:37;15.10;99.90
21823;DHT22;11074;48.596;9.238;2022-10-16T05:31:07;15.20;99.90
21823;DHT22;11074;48.596;9.238;2022-10-16T05:33:38;15.10;99.90
21823;DHT22;11074;48.596;9.238;2022-10-16T05:36:06;15.10;99.90
21823;DHT22;11074;48.596;9.238;2022-10-16T05:38:34;15.10;99.90
21823;DHT22;11074;48.596;9.238;2022-10-16T05:41:04;15.10;99.90
21823;DHT22;11074;48.596;9.238;2022-10-16T05:43:31;15.00;99.90
21823;DHT22;11074;48.596;9.238;2022-10-16T05:46:04;15.00;99.90
21823;DHT22;11074;48.596;9.238;2022-10-16T05:48:31;15.00;99.90
21823;DHT22;11074;48.596;9.238;2022-10-16T05:51:04;15.00;99.90
21823;DHT22;11074;48.596;9.238;2022-10-16T05:53:36;15.00;99.90
21823;DHT22;11074;48.596;9.238;2022-10-16T05:56:04;14.90;99.90
21823;DHT22;11074;48.596;9.238;2022-10-16T05:58:34;15.00;99.90
21823;DHT22;11074;48.596;9.238;2022-10-16T06:01:06;15.10;99.90
21823;DHT22;11074;48.596;9.238;2022-10-16T06:03:35;15.00;99.90
21823;DHT22;11074;48.596;9.238;2022-10-16T06:06:16;15.00;99.90
21823;DHT22;11074;48.596;9.238;2022-10-16T06:08:45;15.00;99.90
21823;DHT22;11074;48.596;9.238;2022-10-16T06:11:17;15.00;99.90
21823;DHT22;11074;48.596;9.238;2022-10-16T06:13:52;15.00;99.90
21823;DHT22;11074;48.596;9.238;2022-10-16T06:16:22;15.00;99.90
21823;DHT22;11074;48.596;9.238;2022-10-16T06:18:53;15.00;99.90
21823;DHT22;11074;48.596;9.238;2022-10-16T06:21:22;15.00;99.90
21823;DHT22;11074;48.596;9.238;2022-10-16T06:23:53;15.00;99.90
21823;DHT22;11074;48.596;9.238;2022-10-16T06:26:22;15.00;99.90
21823;DHT22;11074;48.596;9.238;2022-10-16T06:28:49;15.00;99.90
21823;DHT22;11074;48.596;9.238;2022-10-16T06:31:16;15.00;99.90
21823;DHT22;11074;48.596;9.238;2022-10-16T06:33:42;15.00;99.90
21823;DHT22;11074;48.596;9.238;2022-10-16T06:36:14;15.00;99.90
21823;DHT22;11074;48.596;9.238;2022-10-16T06:38:42;15.00;99.90
21823;DHT22;11074;48.596;9.238;2022-10-16T06:41:11;15.00;99.90
21823;DHT22;11074;48.596;9.238;2022-10-16T06:43:39;15.00;99.90
21823;DHT22;11074;48.596;9.238;2022-10-16T06:46:06;15.00;99.90
21823;DHT22;11074;48.596;9.238;2022-10-16T06:48:35;15.00;99.90
21823;DHT22;11074;48.596;9.238;2022-10-16T06:53:32;15.10;99.90
21823;DHT22;11074;48.596;9.238;2022-10-16T06:56:10;15.10;99.90
21823;DHT22;11074;48.596;9.238;2022-10-16T06:58:41;15.10;99.90
21823;DHT22;11074;48.596;9.238;2022-10-16T07:01:08;15.00;99.90
21823;DHT22;11074;48.596;9.238;2022-10-16T07:03:42;15.00;99.90
21823;DHT22;11074;48.596;9.238;2022-10-16T07:06:11;15.00;99.90
21823;DHT22;11074;48.596;9.238;2022-10-16T07:08:41;15.00;99.90
21823;DHT22;11074;48.596;9.238;2022-10-16T07:11:10;14.90;99.90
21823;DHT22;11074;48.596;9.238;2022-10-16T07:13:40;14.90;99.90
21823;DHT22;11074;48.596;9.238;2022-10-16T07:16:12;15.00;99.90
21823;DHT22;11074;48.596;9.238;2022-10-16T07:18:38;15.00;99.90
21823;DHT22;11074;48.596;9.238;2022-10-16T07:21:07;15.00;99.90
21823;DHT22;11074;48.596;9.238;2022-10-16T07:23:35;15.00;99.90
21823;DHT22;11074;48.596;9.238;2022-10-16T07:26:01;15.00;99.90
21823;DHT22;11074;48.596;9.238;2022-10-16T07:28:28;15.10;99.90
21823;DHT22;11074;48.596;9.238;2022-10-16T07:30:54;15.10;99.90
21823;DHT22;11074;48.596;9.238;2022-10-16T07:33:20;15.10;99.90
21823;DHT22;11074;48.596;9.238;2022-10-16T07:35:53;15.20;99.90
21823;DHT22;11074;48.596;9.238;2022-10-16T07:38:21;15.20;99.90
21823;DHT22;11074;48.596;9.238;2022-10-16T07:40:47;15.10;99.90
21823;DHT22;11074;48.596;9.238;2022-10-16T07:43:14;15.20;99.90
21823;DHT22;11074;48.596;9.238;2022-10-16T07:45:50;15.20;99.90
21823;DHT22;11074;48.596;9.238;2022-10-16T07:48:16;15.20;99.90
21823;DHT22;11074;48.596;9.238;2022-10-16T07:50:43;15.20;99.90
21823;DHT22;11074;48.596;9.238;2022-10-16T07:53:10;15.20;99.90
21823;DHT22;11074;48.596;9.238;2022-10-16T07:55:37;15.20;99.90
21823;DHT22;11074;48.596;9.238;2022-10-16T07:58:03;15.30;99.90
21823;DHT22;11074;48.596;9.238;2022-10-16T08:00:29;15.30;99.90
21823;DHT22;11074;48.596;9.238;2022-10-16T08:02:59;15.40;99.90
21823;DHT22;11074;48.596;9.238;2022-10-16T08:05:28;15.40;99.90
21823;DHT22;11074;48.596;9.238;2022-10-16T08:07:56;15.40;99.90
21823;DHT22;11074;48.596;9.238;2022-10-16T08:10:24;15.40;99.90
21823;DHT22;11074;48.596;9.238;2022-10-16T08:12:51;15.30;99.90
21823;DHT22;11074;48.596;9.238;2022-10-16T08:15:18;15.40;99.90
21823;DHT22;11074;48.596;9.238;2022-10-16T08:17:53;15.40;99.90
21823;DHT22;11074;48.596;9.238;2022-10-16T08:20:23;15.40;99.90
21823;DHT22;11074;48.596;9.238;2022-10-16T08:22:49;15.50;99.90
21823;DHT22;11074;48.596;9.238;2022-10-16T08:25:15;15.50;99.90
21823;DHT22;11074;48.596;9.238;2022-10-16T08:27:41;15.60;99.90
21823;DHT22;11074;48.596;9.238;2022-10-16T08:30:07;15.60;99.90
21823;DHT22;11074;48.596;9.238;2022-10-16T08:32:33;15.70;99.90
21823;DHT22;11074;48.596;9.238;2022-10-16T08:34:59;15.70;99.90
21823;DHT22;11074;48.596;9.238;2022-10-16T08:37:29;15.70;99.90
21823;DHT22;11074;48.596;9.238;2022-10-16T08:39:56;15.80;99.90
21823;DHT22;11074;48.596;9.238;2022-10-16T08:48:50;16.00;99.90
21823;DHT22;11074;48.596;9.238;2022-10-16T08:51:24;16.00;99.90
21823;DHT22;11074;48.596;9.238;2022-10-16T08:54:21;16.00;99.90
21823;DHT22;11074;48.596;9.238;2022-10-16T08:56:57;16.10;99.90
21823;DHT22;11074;48.596;9.238;2022-10-16T08:59:33;16.10;99.90
21823;DHT22;11074;48.596;9.238;2022-10-16T09:01:58;16.10;99.90
21823;DHT22;11074;48.596;9.238;2022-10-16T09:10:59;16.20;99.90
21823;DHT22;11074;48.596;9.238;2022-10-16T09:25:32;16.40;99.90
21823;DHT22;11074;48.596;9.238;2022-10-16T09:27:59;16.50;99.90
21823;DHT22;11074;48.596;9.238;2022-10-16T09:30:28;16.50;99.90
21823;DHT22;11074;48.596;9.238;2022-10-16T09:32:55;16.60;99.90
21823;DHT22;11074;48.596;9.238;2022-10-16T09:35:33;16.80;99.90
21823;DHT22;11074;48.596;9.238;2022-10-16T09:38:03;16.90;99.90
21823;DHT22;11074;48.596;9.238;2022-10-16T09:40:34;16.90;99.90
21823;DHT22;11074;48.596;9.238;2022-10-16T09:43:42;17.00;99.90
21823;DHT22;11074;48.596;9.238;2022-10-16T09:46:27;17.10;99.90
21823;DHT22;11074;48.596;9.238;2022-10-16T09:49:02;17.20;99.90
21823;DHT22;11074;48.596;9.238;2022-10-16T09:51:31;17.30;99.90
21823;DHT22;11074;48.596;9.238;2022-10-16T09:54:11;17.30;99.90
21823;DHT22;11074;48.596;9.238;2022-10-16T09:56:39;17.40;99.90
21823;DHT22;11074;48.596;9.238;2022-10-16T09:59:15;17.40;99.90
21823;DHT22;11074;48.596;9.238;2022-10-16T10:01:46;17.40;99.90
21823;DHT22;11074;48.596;9.238;2022-10-16T10:04:12;17.40;99.90
21823;DHT22;11074;48.596;9.238;2022-10-16T10:06:52;17.50;99.90
21823;DHT22;11074;48.596;9.238;2022-10-16T10:09:28;17.50;99.90
21823;DHT22;11074;48.596;9.238;2022-10-16T10:12:02;17.60;99.90
21823;DHT22;11074;48.596;9.238;2022-10-16T10:14:51;17.60;99.90
21823;DHT22;11074;48.596;9.238;2022-10-16T10:17:20;17.70;99.90
21823;DHT22;11074;48.596;9.238;2022-10-16T10:19:50;17.70;99.90
21823;DHT22;11074;48.596;9.238;2022-10-16T10:22:31;17.80;99.90
21823;DHT22;11074;48.596;9.238;2022-10-16T10:33:47;18.20;99.90
21823;DHT22;11074;48.596;9.238;2022-10-16T10:48:10;18.50;99.90
21823;DHT22;11074;48.596;9.238;2022-10-16T10:51:05;18.50;99.90
21823;DHT22;11074;48.596;9.238;2022-10-16T10:56:43;18.60;99.90
21823;DHT22;11074;48.596;9.238;2022-10-16T11:07:39;18.90;99.90
21823;DHT22;11074;48.596;9.238;2022-10-16T11:10:42;19.10;99.90
21823;DHT22;11074;48.596;9.238;2022-10-16T11:16:30;19.30;99.90
21823;DHT22;11074;48.596;9.238;2022-10-16T11:19:14;19.30;99.90
21823;DHT22;11074;48.596;9.238;2022-10-16T11:21:47;19.30;99.90
21823;DHT22;11074;48.596;9.238;2022-10-16T11:24:23;19.40;99.90
21823;DHT22;11074;48.596;9.238;2022-10-16T11:27:15;19.50;99.90
21823;DHT22;11074;48.596;9.238;2022-10-16T11:29:59;19.80;99.90
21823;DHT22;11074;48.596;9.238;2022-10-16T11:32:33;20.20;99.90
21823;DHT22;11074;48.596;9.238;2022-10-16T11:35:19;20.40;99.90
21823;DHT22;11074;48.596;9.238;2022-10-16T11:37:52;20.70;99.90
21823;DHT22;11074;48.596;9.238;2022-10-16T11:40:29;21.00;99.90
21823;DHT22;11074;48.596;9.238;2022-10-16T11:43:17;21.00;99.90
21823;DHT22;11074;48.596;9.238;2022-10-16T11:45:56;21.00;99.90
21823;DHT22;11074;48.596;9.238;2022-10-16T11:48:50;21.00;99.90
21823;DHT22;11074;48.596;9.238;2022-10-16T11:51:33;20.90;99.90
21823;DHT22;11074;48.596;9.238;2022-10-16T11:56:51;21.20;99.90
21823;DHT22;11074;48.596;9.238;2022-10-16T11:59:44;21.20;99.90
21823;DHT22;11074;48.596;9.238;2022-10-16T12:08:37;21.20;99.90
21823;DHT22;11074;48.596;9.238;2022-10-16T12:11:37;21.40;99.90
21823;DHT22;11074;48.596;9.238;2022-10-16T12:19:18;21.80;99.90
21823;DHT22;11074;48.596;9.238;2022-10-16T12:21:45;21.90;99.90
21823;DHT22;11074;48.596;9.238;2022-10-16T12:24:36;22.00;99.90
21823;DHT22;11074;48.596;9.238;2022-10-16T12:27:18;22.20;99.90
21823;DHT22;11074;48.596;9.238;2022-10-16T12:29:55;22.30;99.90
21823;DHT22;11074;48.596;9.238;2022-10-16T12:32:39;22.40;99.90
21823;DHT22;11074;48.596;9.238;2022-10-16T12:35:17;22.60;99.90
21823;DHT22;11074;48.596;9.238;2022-10-16T12:37:46;22.60;99.90
21823;DHT22;11074;48.596;9.238;2022-10-16T12:40:30;22.50;99.90
21823;DHT22;11074;48.596;9.238;2022-10-16T12:42:58;22.40;99.90
21823;DHT22;11074;48.596;9.238;2022-10-16T12:45:28;22.30;99.90
21823;DHT22;11074;48.596;9.238;2022-10-16T12:47:57;22.30;99.90
21823;DHT22;11074;48.596;9.238;2022-10-16T12:50:35;22.20;99.90
21823;DHT22;11074;48.596;9.238;2022-10-16T12:53:17;22.30;99.90
21823;DHT22;11074;48.596;9.238;2022-10-16T12:56:21;22.40;99.90
21823;DHT22;11074;48.596;9.238;2022-10-16T13:07:36;23.10;99.90
21823;DHT22;11074;48.596;9.238;2022-10-16T13:10:28;23.20;99.90
21823;DHT22;11074;48.596;9.238;2022-10-16T13:22:10;23.50;99.90
21823;DHT22;11074;48.596;9.238;2022-10-16T13:25:22;23.40;99.90
21823;DHT22;11074;48.596;9.238;2022-10-16T13:28:03;23.30;99.90
21823;DHT22;11074;48.596;9.238;2022-10-16T13:30:41;23.20;99.90
21823;DHT22;11074;48.596;9.238;2022-10-16T13:36:03;22.90;99.90
21823;DHT22;11074;48.596;9.238;2022-10-16T13:38:32;22.80;99.90
21823;DHT22;11074;48.596;9.238;2022-10-16T13:41:02;22.70;99.90
21823;DHT22;11074;48.596;9.238;2022-10-16T13:43:50;22.70;99.90
21823;DHT22;11074;48.596;9.238;2022-10-16T13:46:21;22.70;99.90
21823;DHT22;11074;48.596;9.238;2022-10-16T13:49:14;22.80;99.90
21823;DHT22;11074;48.596;9.238;2022-10-16T13:51:54;22.90;99.90
21823;DHT22;11074;48.596;9.238;2022-10-16T13:54:22;22.90;99.90
21823;DHT22;11074;48.596;9.238;2022-10-16T13:56:48;22.90;99.90
21823;DHT22;11074;48.596;9.238;2022-10-16T13:59:34;22.80;99.90
21823;DHT22;11074;48.596;9.238;2022-10-16T14:02:10;22.80;99.90
21823;DHT22;11074;48.596;9.238;2022-10-16T14:04:46;22.70;99.90
21823;DHT22;11074;48.596;9.238;2022-10-16T14:07:27;22.60;99.90
21823;DHT22;11074;48.596;9.238;2022-10-16T14:09:55;22.40;99.90
21823;DHT22;11074;48.596;9.238;2022-10-16T14:12:23;22.40;99.90
21823;DHT22;11074;48.596;9.238;2022-10-16T14:14:51;22.30;99.90
21823;DHT22;11074;48.596;9.238;2022-10-16T14:17:23;22.20;99.90
21823;DHT22;11074;48.596;9.238;2022-10-16T14:19:54;22.00;99.90
21823;DHT22;11074;48.596;9.238;2022-10-16T14:22:37;22.00;99.90
21823;DHT22;11074;48.596;9.238;2022-10-16T14:25:29;22.00;99.90
21823;DHT22;11074;48.596;9.238;2022-10-16T14:28:14;21.90;99.90
21823;DHT22;11074;48.596;9.238;2022-10-16T14:30:55;21.80;99.90
21823;DHT22;11074;48.596;9.238;2022-10-16T14:36:10;21.60;99.90
21823;DHT22;11074;48.596;9.238;2022-10-16T14:38:40;21.60;99.90
21823;DHT22;11074;48.596;9.238;2022-10-16T14:41:13;21.60;99.90
21823;DHT22;11074;48.596;9.238;2022-10-16T14:43:41;21.50;99.90
21823;DHT22;11074;48.596;9.238;2022-10-16T14:46:16;21.40;99.90
21823;DHT22;11074;48.596;9.238;2022-10-16T14:48:47;21.50;99.90
21823;DHT22;11074;48.596;9.238;2022-10-16T14:51:18;21.50;99.90
21823;DHT22;11074;48.596;9.238;2022-10-16T14:53:45;21.40;99.90
21823;DHT22;11074;48.596;9.238;2022-10-16T14:56:20;21.50;99.90
21823;DHT22;11074;48.596;9.238;2022-10-16T14:58:50;21.40;99.90
21823;DHT22;11074;48.596;9.238;2022-10-16T15:01:17;21.40;99.90
21823;DHT22;11074;48.596;9.238;2022-10-16T15:03:44;21.40;99.90
21823;DHT22;11074;48.596;9.238;2022-10-16T15:06:16;21.40;99.90
21823;DHT22;11074;48.596;9.238;2022-10-16T15:08:42;21.40;99.90
21823;DHT22;11074;48.596;9.238;2022-10-16T15:11:17;21.40;99.90
21823;DHT22;11074;48.596;9.238;2022-10-16T15:13:44;21.30;99.90
21823;DHT22;11074;48.596;9.238;2022-10-16T15:16:13;21.30;99.90
21823;DHT22;11074;48.596;9.238;2022-10-16T15:18:41;21.30;99.90
21823;DHT22;11074;48.596;9.238;2022-10-16T15:21:12;21.20;99.90
21823;DHT22;11074;48.596;9.238;2022-10-16T15:23:53;21.20;99.90
21823;DHT22;11074;48.596;9.238;2022-10-16T15:26:19;21.10;99.90
21823;DHT22;11074;48.596;9.238;2022-10-16T15:28:45;21.10;99.90
21823;DHT22;11074;48.596;9.238;2022-10-16T15:31:10;21.00;99.90
21823;DHT22;11074;48.596;9.238;2022-10-16T15:33:36;21.00;99.90
21823;DHT22;11074;48.596;9.238;2022-10-16T15:36:02;21.00;99.90
21823;DHT22;11074;48.596;9.238;2022-10-16T15:38:29;20.90;99.90
21823;DHT22;11074;48.596;9.238;2022-10-16T15:40:55;20.90;99.90
21823;DHT22;11074;48.596;9.238;2022-10-16T15:43:22;20.90;99.90
21823;DHT22;11074;48.596;9.238;2022-10-16T15:46:02;20.80;99.90
21823;DHT22;11074;48.596;9.238;2022-10-16T15:48:31;20.90;99.90
21823;DHT22;11074;48.596;9.238;2022-10-16T15:50:58;20.70;99.90
21823;DHT22;11074;48.596;9.238;2022-10-16T15:53:24;20.70;99.90
21823;DHT22;11074;48.596;9.238;2022-10-16T15:55:50;20.60;99.90
21823;DHT22;11074;48.596;9.238;2022-10-16T15:58:16;20.50;99.90
21823;DHT22;11074;48.596;9.238;2022-10-16T16:00:42;20.50;99.90
21823;DHT22;11074;48.596;9.238;2022-10-16T16:03:08;20.50;99.90
21823;DHT22;11074;48.596;9.238;2022-10-16T16:05:38;20.50;99.90
21823;DHT22;11074;48.596;9.238;2022-10-16T16:08:04;20.40;99.90
21823;DHT22;11074;48.596;9.238;2022-10-16T16:10:30;20.30;99.90
21823;DHT22;11074;48.596;9.238;2022-10-16T16:12:56;20.30;99.90
21823;DHT22;11074;48.596;9.238;2022-10-16T16:15:22;20.20;99.90
21823;DHT22;11074;48.596;9.238;2022-10-16T16:17:48;20.20;99.90
21823;DHT22;11074;48.596;9.238;2022-10-16T16:20:14;20.00;99.90
21823;DHT22;11074;48.596;9.238;2022-10-16T16:22:40;20.10;99.90
21823;DHT22;11074;48.596;9.238;2022-10-16T16:25:06;20.00;99.90
21823;DHT22;11074;48.596;9.238;2022-10-16T16:27:32;19.90;99.90
21823;DHT22;11074;48.596;9.238;2022-10-16T16:30:00;20.00;99.90
21823;DHT22;11074;48.596;9.238;2022-10-16T16:32:28;19.90;99.90
21823;DHT22;11074;48.596;9.238;2022-10-16T16:34:54;19.90;99.90
21823;DHT22;11074;48.596;9.238;2022-10-16T16:37:20;19.80;99.90
21823;DHT22;11074;48.596;9.238;2022-10-16T16:39:46;19.70;99.90
21823;DHT22;11074;48.596;9.238;2022-10-16T16:42:12;19.70;99.90
21823;DHT22;11074;48.596;9.238;2022-10-16T16:44:37;19.70;99.90
21823;DHT22;11074;48.596;9.238;2022-10-16T16:47:04;19.60;99.90
21823;DHT22;11074;48.596;9.238;2022-10-16T16:49:31;19.60;99.90
21823;DHT22;11074;48.596;9.238;2022-10-16T16:51:57;19.50;99.90
21823;DHT22;11074;48.596;9.238;2022-10-16T16:54:23;19.50;99.90
21823;DHT22;11074;48.596;9.238;2022-10-16T16:56:49;19.30;99.90
21823;DHT22;11074;48.596;9.238;2022-10-16T16:59:21;19.30;99.90
21823;DHT22;11074;48.596;9.238;2022-10-16T17:01:47;19.30;99.90
21823;DHT22;11074;48.596;9.238;2022-10-16T17:04:14;19.30;99.90
21823;DHT22;11074;48.596;9.238;2022-10-16T17:06:44;19.30;99.90
21823;DHT22;11074;48.596;9.238;2022-10-16T17:09:10;19.20;99.90
21823;DHT22;11074;48.596;9.238;2022-10-16T17:11:38;19.20;99.90
21823;DHT22;11074;48.596;9.238;2022-10-16T17:14:07;19.20;99.90
21823;DHT22;11074;48.596;9.238;2022-10-16T17:16:35;19.10;99.90
21823;DHT22;11074;48.596;9.238;2022-10-16T17:19:08;19.10;99.90
21823;DHT22;11074;48.596;9.238;2022-10-16T17:21:40;19.10;99.90
21823;DHT22;11074;48.596;9.238;2022-10-16T17:24:07;19.00;99.90
21823;DHT22;11074;48.596;9.238;2022-10-16T17:26:33;19.00;99.90
21823;DHT22;11074;48.596;9.238;2022-10-16T17:29:03;18.90;99.90
21823;DHT22;11074;48.596;9.238;2022-10-16T17:31:32;18.90;99.90
21823;DHT22;11074;48.596;9.238;2022-10-16T17:34:00;18.80;99.90
21823;DHT22;11074;48.596;9.238;2022-10-16T17:36:30;18.80;99.90
21823;DHT22;11074;48.596;9.238;2022-10-16T17:39:04;18.80;99.90
21823;DHT22;11074;48.596;9.238;2022-10-16T17:41:32;18.70;99.90
21823;DHT22;11074;48.596;9.238;2022-10-16T17:43:59;18.70;99.90
21823;DHT22;11074;48.596;9.238;2022-10-16T17:46:25;18.70;99.90
21823;DHT22;11074;48.596;9.238;2022-10-16T17:48:52;18.60;99.90